Time;durP1;ratioP1;P1;durP2;ratioP2;P2;SDS_P1;SDS_P2;PMS_P1;PMS_P2;Temp;Humidity;BMP_temperature;BMP_pressure;BME280_temperature;BME280_humidity;BME280_pressure;Samples;Min_cycle;Max_cycle;Signal;HPM_P1;HPM_P2
2023/08/23 00:02:08;;;;;;;5.22;4.57;;;;;;;;;;5037071;28;20276;-76
2023/08/23 00:04:36;;;;;;;5.03;4.47;;;;;;;;;;5039069;28;20222;-77
2023/08/23 00:07:03;;;;;;;6.45;4.68;;;;;;;;;;5031780;28;20206;-74
2023/08/23 00:09:31;;;;;;;7.50;4.40;;;;;;;;;;5022901;28;20276;-77
2023/08/23 00:11:58;;;;;;;4.70;4.30;;;;;;;;;;5043487;28;20245;-77
2023/08/23 00:14:25;;;;;;;5.72;4.38;;;;;;;;;;5035527;28;20253;-76
2023/08/23 00:16:52;;;;;;;7.35;4.47;;;;;;;;;;5038935;28;20283;-78
2023/08/23 00:19:19;;;;;;;5.00;4.40;;;;;;;;;;5035793;28;20198;-77
2023/08/23 00:21:47;;;;;;;5.75;4.90;;;;;;;;;;5038281;28;20300;-76
2023/08/23 00:24:14;;;;;;;6.55;4.28;;;;;;;;;;5030333;28;20225;-77
2023/08/23 00:26:41;;;;;;;7.10;5.00;;;;;;;;;;5034746;28;20969;-77
2023/08/23 00:29:08;;;;;;;5.43;4.70;;;;;;;;;;5030697;28;20202;-76
2023/08/23 00:31:35;;;;;;;6.03;4.60;;;;;;;;;;5028199;28;20758;-77
2023/08/23 00:34:02;;;;;;;5.03;4.55;;;;;;;;;;5033917;28;20299;-76
2023/08/23 00:36:30;;;;;;;5.35;4.50;;;;;;;;;;5037215;28;20230;-77
2023/08/23 00:38:57;;;;;;;4.85;4.38;;;;;;;;;;5035325;28;20202;-76
2023/08/23 00:41:24;;;;;;;4.93;4.53;;;;;;;;;;5032066;28;20230;-77
2023/08/23 00:43:51;;;;;;;5.47;4.32;;;;;;;;;;5031197;28;20198;-77
2023/08/23 00:46:19;;;;;;;5.10;4.60;;;;;;;;;;5031665;28;20237;-77
2023/08/23 00:48:47;;;;;;;6.00;4.63;;;;;;;;;;5031354;28;20297;-77
2023/08/23 00:51:15;;;;;;;7.30;4.80;;;;;;;;;;5034266;28;20206;-77
2023/08/23 00:53:42;;;;;;;7.00;4.43;;;;;;;;;;5025769;28;20272;-77
2023/08/23 00:56:10;;;;;;;5.05;4.55;;;;;;;;;;5046957;28;20246;-76
2023/08/23 00:58:37;;;;;;;5.03;4.57;;;;;;;;;;5028920;28;20389;-77
2023/08/23 01:01:04;;;;;;;4.57;4.03;;;;;;;;;;5041744;28;20206;-77
2023/08/23 01:03:33;;;;;;;5.57;4.32;;;;;;;;;;5030631;28;21911;-77
2023/08/23 01:06:12;;;;;;;6.00;4.22;;;;;;;;;;5032998;28;20230;-75
2023/08/23 01:08:42;;;;;;;5.25;4.25;;;;;;;;;;5028825;28;20206;-77
2023/08/23 01:11:24;;;;;;;4.10;3.70;;;;;;;;;;5029263;28;20203;-77
2023/08/23 01:14:12;;;;;;;5.07;4.20;;;;;;;;;;5016546;28;20646;-77
2023/08/23 01:16:39;;;;;;;4.03;3.65;;;;;;;;;;5038321;28;20229;-77
2023/08/23 01:19:36;;;;;;;6.20;3.85;;;;;;;;;;5047467;28;20575;-75
2023/08/23 01:22:08;;;;;;;7.15;4.10;;;;;;;;;;5025565;28;20256;-77
2023/08/23 01:24:36;;;;;;;4.25;3.85;;;;;;;;;;5031219;28;20242;-78
2023/08/23 01:27:03;;;;;;;4.63;4.00;;;;;;;;;;5014445;28;20214;-76
2023/08/23 01:29:30;;;;;;;7.53;3.63;;;;;;;;;;5036487;28;20234;-79
2023/08/23 01:32:03;;;;;;;5.55;4.07;;;;;;;;;;5037818;28;20264;-77
2023/08/23 01:34:32;;;;;;;15.82;9.75;;;;;;;;;;5045323;28;20733;-76
2023/08/23 01:37:01;;;;;;;14.10;7.78;;;;;;;;;;5040175;28;20279;-77
2023/08/23 01:39:29;;;;;;;16.52;9.63;;;;;;;;;;5038067;28;20321;-76
2023/08/23 01:41:56;;;;;;;13.88;9.02;;;;;;;;;;5035938;28;20252;-77
2023/08/23 01:44:24;;;;;;;13.85;7.95;;;;;;;;;;5039704;28;20276;-78
2023/08/23 01:46:51;;;;;;;11.85;8.82;;;;;;;;;;5036329;28;20206;-76
2023/08/23 01:49:18;;;;;;;12.63;8.45;;;;;;;;;;5038786;28;20233;-77
2023/08/23 01:51:45;;;;;;;11.80;7.93;;;;;;;;;;5031771;28;20304;-76
2023/08/23 01:54:12;;;;;;;7.82;5.80;;;;;;;;;;5034116;28;20233;-76
2023/08/23 01:56:39;;;;;;;7.20;4.43;;;;;;;;;;5035256;28;20245;-76
2023/08/23 01:59:07;;;;;;;7.38;4.38;;;;;;;;;;5030343;28;20226;-78
2023/08/23 02:01:34;;;;;;;5.30;4.80;;;;;;;;;;5032964;28;20298;-76
2023/08/23 02:04:01;;;;;;;5.80;5.00;;;;;;;;;;5027085;28;20207;-77
2023/08/23 02:06:28;;;;;;;6.45;5.32;;;;;;;;;;5039350;28;20225;-77
2023/08/23 02:08:55;;;;;;;8.52;5.30;;;;;;;;;;5039732;28;20248;-77
2023/08/23 02:11:23;;;;;;;5.05;4.65;;;;;;;;;;5038634;28;20218;-76
2023/08/23 02:13:50;;;;;;;4.95;4.45;;;;;;;;;;5032332;28;20295;-77
2023/08/23 02:16:17;;;;;;;4.80;4.30;;;;;;;;;;5059299;28;20292;-76
2023/08/23 02:18:44;;;;;;;7.50;4.82;;;;;;;;;;5040331;28;21298;-75
2023/08/23 02:21:11;;;;;;;7.68;4.50;;;;;;;;;;5041656;28;20226;-78
2023/08/23 02:23:39;;;;;;;5.00;4.40;;;;;;;;;;5047465;28;20194;-76
2023/08/23 02:26:06;;;;;;;5.55;4.32;;;;;;;;;;5047680;28;20226;-76
2023/08/23 02:28:33;;;;;;;5.13;4.15;;;;;;;;;;5047925;28;20202;-78
2023/08/23 02:31:01;;;;;;;6.25;4.47;;;;;;;;;;5050398;28;22902;-75
2023/08/23 02:33:29;;;;;;;7.05;4.80;;;;;;;;;;5040177;28;20942;-76
2023/08/23 02:35:56;;;;;;;6.43;4.50;;;;;;;;;;5043176;28;20222;-77
2023/08/23 02:38:23;;;;;;;7.18;5.00;;;;;;;;;;5031488;28;20236;-76
2023/08/23 02:40:50;;;;;;;11.57;6.15;;;;;;;;;;5036515;28;20207;-76
2023/08/23 02:43:17;;;;;;;10.25;5.40;;;;;;;;;;5029776;28;20287;-77
2023/08/23 02:45:44;;;;;;;6.82;5.47;;;;;;;;;;5054911;28;20222;-77
2023/08/23 02:48:12;;;;;;;6.35;5.25;;;;;;;;;;5036077;28;20272;-77
2023/08/23 02:50:39;;;;;;;6.47;4.88;;;;;;;;;;5029026;28;20353;-77
2023/08/23 02:53:06;;;;;;;7.10;4.78;;;;;;;;;;5033319;28;20746;-76
2023/08/23 02:55:37;;;;;;;5.30;4.45;;;;;;;;;;5026629;28;21743;-77
2023/08/23 02:58:04;;;;;;;6.38;4.88;;;;;;;;;;5026568;28;23000;-76
2023/08/23 03:00:32;;;;;;;6.43;4.57;;;;;;;;;;5034595;28;20294;-76
2023/08/23 03:02:59;;;;;;;6.57;4.55;;;;;;;;;;5031880;28;20202;-75
2023/08/23 03:05:26;;;;;;;6.38;4.82;;;;;;;;;;5032784;28;20217;-76
2023/08/23 03:07:53;;;;;;;5.65;4.38;;;;;;;;;;5035721;28;20283;-79
2023/08/23 03:10:21;;;;;;;4.75;4.03;;;;;;;;;;5030921;28;20203;-78
2023/08/23 03:12:48;;;;;;;4.72;4.32;;;;;;;;;;5035272;28;20210;-76
2023/08/23 03:15:15;;;;;;;6.25;4.82;;;;;;;;;;5033477;28;20777;-76
2023/08/23 03:17:42;;;;;;;4.95;4.50;;;;;;;;;;5029229;28;20226;-76
2023/08/23 03:20:10;;;;;;;5.18;4.50;;;;;;;;;;5036575;28;20212;-76
2023/08/23 03:22:37;;;;;;;5.70;5.00;;;;;;;;;;5032185;28;20210;-77
2023/08/23 03:25:04;;;;;;;5.35;4.40;;;;;;;;;;5023306;28;20310;-76
2023/08/23 03:27:32;;;;;;;5.15;4.15;;;;;;;;;;5023124;28;20202;-77
2023/08/23 03:29:59;;;;;;;5.75;4.35;;;;;;;;;;5023555;28;20258;-76
2023/08/23 03:32:26;;;;;;;5.43;4.60;;;;;;;;;;5030056;28;20238;-77
2023/08/23 03:34:53;;;;;;;5.05;4.55;;;;;;;;;;5021771;28;20222;-78
2023/08/23 03:37:20;;;;;;;5.05;4.35;;;;;;;;;;5031972;28;20319;-76
2023/08/23 03:39:48;;;;;;;5.88;4.38;;;;;;;;;;5031230;28;20214;-76
2023/08/23 03:42:17;;;;;;;4.70;4.00;;;;;;;;;;5036275;28;20198;-76
2023/08/23 03:44:44;;;;;;;7.63;4.32;;;;;;;;;;5039603;28;20597;-77
2023/08/23 03:47:11;;;;;;;5.43;4.90;;;;;;;;;;5025399;28;20233;-77
2023/08/23 03:49:38;;;;;;;5.55;4.38;;;;;;;;;;5026868;28;20229;-77
2023/08/23 03:52:06;;;;;;;6.63;4.70;;;;;;;;;;5041358;28;21133;-77
2023/08/23 03:54:33;;;;;;;6.88;4.18;;;;;;;;;;5043052;28;20363;-77
2023/08/23 03:57:00;;;;;;;6.50;4.25;;;;;;;;;;5032557;28;20320;-76
2023/08/23 03:59:27;;;;;;;7.15;5.13;;;;;;;;;;5037181;28;20644;-76
2023/08/23 04:01:55;;;;;;;7.72;4.75;;;;;;;;;;5025578;28;20319;-76
2023/08/23 04:04:22;;;;;;;4.93;3.97;;;;;;;;;;5036671;28;20313;-77
2023/08/23 04:06:49;;;;;;;4.68;4.28;;;;;;;;;;5036353;28;20750;-77
2023/08/23 04:09:17;;;;;;;4.80;4.30;;;;;;;;;;5038107;28;20680;-77
2023/08/23 04:11:44;;;;;;;8.00;4.22;;;;;;;;;;5034438;28;20198;-75
2023/08/23 04:14:11;;;;;;;6.90;4.90;;;;;;;;;;5034679;28;20234;-75
2023/08/23 04:16:38;;;;;;;10.35;5.70;;;;;;;;;;5022193;28;20363;-75
2023/08/23 04:19:06;;;;;;;7.65;5.35;;;;;;;;;;5038258;28;20497;-79
2023/08/23 04:21:33;;;;;;;7.82;5.13;;;;;;;;;;5047744;28;20193;-77
2023/08/23 04:24:00;;;;;;;6.93;5.18;;;;;;;;;;5040340;28;20210;-76
2023/08/23 04:26:27;;;;;;;6.10;5.53;;;;;;;;;;5040148;28;20842;-76
2023/08/23 04:28:54;;;;;;;9.93;5.47;;;;;;;;;;5047813;28;20612;-78
2023/08/23 04:31:22;;;;;;;9.05;6.05;;;;;;;;;;5038048;28;20332;-75
2023/08/23 04:33:49;;;;;;;7.78;6.18;;;;;;;;;;5060941;28;20229;-76
2023/08/23 04:36:16;;;;;;;9.30;6.20;;;;;;;;;;5036641;28;20257;-75
2023/08/23 04:38:44;;;;;;;6.90;6.18;;;;;;;;;;5042504;28;20199;-75
2023/08/23 04:41:11;;;;;;;9.52;6.35;;;;;;;;;;5042170;28;20751;-77
2023/08/23 04:43:38;;;;;;;10.73;5.97;;;;;;;;;;5039875;28;20304;-76
2023/08/23 04:46:06;;;;;;;8.48;6.15;;;;;;;;;;5041076;28;20272;-77
2023/08/23 04:48:34;;;;;;;9.65;6.97;;;;;;;;;;5041106;28;20606;-76
2023/08/23 04:51:03;;;;;;;8.00;6.25;;;;;;;;;;5040541;28;20685;-76
2023/08/23 04:53:31;;;;;;;7.28;5.80;;;;;;;;;;5040587;28;21672;-77
2023/08/23 04:55:58;;;;;;;9.32;6.10;;;;;;;;;;5041946;28;20454;-75
2023/08/23 04:58:32;;;;;;;7.18;6.45;;;;;;;;;;5040570;28;20285;-77
2023/08/23 05:01:05;;;;;;;8.82;6.68;;;;;;;;;;5053028;28;20298;-76
2023/08/23 05:03:33;;;;;;;9.27;5.55;;;;;;;;;;5041818;28;20279;-76
2023/08/23 05:06:01;;;;;;;6.18;5.60;;;;;;;;;;5039598;28;20249;-75
2023/08/23 05:08:29;;;;;;;8.27;5.68;;;;;;;;;;5045583;28;20207;-75
2023/08/23 05:10:56;;;;;;;6.93;5.85;;;;;;;;;;5045938;28;20264;-76
2023/08/23 05:13:24;;;;;;;6.28;5.68;;;;;;;;;;5041609;28;20809;-76
2023/08/23 05:15:54;;;;;;;8.35;5.53;;;;;;;;;;5042973;28;20234;-75
2023/08/23 05:18:22;;;;;;;6.55;5.88;;;;;;;;;;5038640;28;20224;-76
2023/08/23 05:20:54;;;;;;;8.82;6.03;;;;;;;;;;5045143;28;20274;-75
2023/08/23 05:23:22;;;;;;;7.40;5.82;;;;;;;;;;5039382;28;20198;-75
2023/08/23 05:25:52;;;;;;;6.68;5.80;;;;;;;;;;5044872;28;20237;-76
2023/08/23 05:28:19;;;;;;;8.63;6.05;;;;;;;;;;5046433;28;20263;-76
2023/08/23 05:30:47;;;;;;;6.57;5.88;;;;;;;;;;5041800;28;20286;-76
2023/08/23 05:33:14;;;;;;;9.95;6.50;;;;;;;;;;5038942;28;20284;-77
2023/08/23 05:35:43;;;;;;;6.80;6.10;;;;;;;;;;5045300;28;20225;-76
2023/08/23 05:38:10;;;;;;;7.78;5.90;;;;;;;;;;5053675;28;20792;-78
2023/08/23 05:40:38;;;;;;;10.10;5.90;;;;;;;;;;5040908;28;20233;-76
2023/08/23 05:43:05;;;;;;;7.97;6.20;;;;;;;;;;5038119;28;20213;-75
2023/08/23 05:45:33;;;;;;;7.32;6.63;;;;;;;;;;5041423;28;20696;-76
2023/08/23 05:48:00;;;;;;;9.45;6.55;;;;;;;;;;5037283;28;20288;-76
2023/08/23 05:50:28;;;;;;;9.85;6.30;;;;;;;;;;5036024;28;20217;-75
2023/08/23 05:52:55;;;;;;;8.52;5.93;;;;;;;;;;5036916;28;20215;-74
2023/08/23 05:55:22;;;;;;;6.50;5.78;;;;;;;;;;5039704;28;20283;-76
2023/08/23 05:57:49;;;;;;;8.43;5.95;;;;;;;;;;5045477;28;20268;-76
2023/08/23 06:00:17;;;;;;;6.70;5.90;;;;;;;;;;5039503;28;20253;-76
2023/08/23 06:02:44;;;;;;;12.07;5.78;;;;;;;;;;5038564;28;20245;-76
2023/08/23 06:05:13;;;;;;;10.23;6.72;;;;;;;;;;5042696;28;20222;-76
2023/08/23 06:07:41;;;;;;;12.35;7.90;;;;;;;;;;5037985;28;20272;-77
2023/08/23 06:10:10;;;;;;;9.23;7.00;;;;;;;;;;5046000;28;20206;-74
2023/08/23 06:12:37;;;;;;;8.93;6.65;;;;;;;;;;5037352;28;20213;-76
2023/08/23 06:15:05;;;;;;;7.78;6.70;;;;;;;;;;5025137;28;20239;-75
2023/08/23 06:17:32;;;;;;;7.97;6.55;;;;;;;;;;5035392;28;20221;-76
2023/08/23 06:19:59;;;;;;;11.40;6.47;;;;;;;;;;5040490;28;20202;-76
2023/08/23 06:22:26;;;;;;;7.60;6.72;;;;;;;;;;5036507;28;20287;-75
2023/08/23 06:24:54;;;;;;;11.25;7.95;;;;;;;;;;5038423;28;20246;-76
2023/08/23 06:27:21;;;;;;;10.82;6.75;;;;;;;;;;5040621;28;20264;-77
2023/08/23 06:29:48;;;;;;;11.40;6.90;;;;;;;;;;5038200;28;20279;-77
2023/08/23 06:32:15;;;;;;;8.18;6.45;;;;;;;;;;5017897;28;20260;-77
2023/08/23 06:34:42;;;;;;;7.85;6.50;;;;;;;;;;5039007;28;20276;-77
2023/08/23 06:37:11;;;;;;;7.32;6.63;;;;;;;;;;5039180;28;20323;-76
2023/08/23 06:39:39;;;;;;;9.13;6.50;;;;;;;;;;5023043;28;20205;-78
2023/08/23 06:42:06;;;;;;;8.90;6.90;;;;;;;;;;5035357;28;20202;-77
2023/08/23 06:44:33;;;;;;;7.32;6.63;;;;;;;;;;5031787;28;20242;-78
2023/08/23 06:47:01;;;;;;;8.38;6.03;;;;;;;;;;5039466;28;20268;-76
2023/08/23 06:49:28;;;;;;;8.27;6.60;;;;;;;;;;5038595;28;20206;-76
2023/08/23 06:51:55;;;;;;;9.75;6.72;;;;;;;;;;5040278;28;20230;-75
2023/08/23 06:54:22;;;;;;;7.97;7.05;;;;;;;;;;5043486;28;20489;-75
2023/08/23 06:56:49;;;;;;;6.60;6.00;;;;;;;;;;5034554;28;20666;-77
2023/08/23 06:59:16;;;;;;;10.25;7.07;;;;;;;;;;5038928;28;20210;-76
2023/08/23 07:01:44;;;;;;;7.28;5.70;;;;;;;;;;5031937;28;20210;-76
2023/08/23 07:04:11;;;;;;;7.55;6.32;;;;;;;;;;5042752;28;20274;-76
2023/08/23 07:06:41;;;;;;;8.40;6.15;;;;;;;;;;5032167;28;20202;-77
2023/08/23 07:09:08;;;;;;;6.97;6.18;;;;;;;;;;5030407;28;20618;-76
2023/08/23 07:11:35;;;;;;;7.07;6.35;;;;;;;;;;5034672;28;20260;-76
2023/08/23 07:14:04;;;;;;;6.30;5.70;;;;;;;;;;5027932;28;20206;-77
2023/08/23 07:16:31;;;;;;;6.22;5.63;;;;;;;;;;5027875;28;20205;-77
2023/08/23 07:19:01;;;;;;;6.90;6.00;;;;;;;;;;5037146;28;20325;-76
2023/08/23 07:21:29;;;;;;;6.93;5.55;;;;;;;;;;5040467;28;20291;-76
2023/08/23 07:23:56;;;;;;;5.25;4.70;;;;;;;;;;5039659;28;20206;-76
2023/08/23 07:26:24;;;;;;;7.28;5.25;;;;;;;;;;5026474;28;20288;-76
2023/08/23 07:28:51;;;;;;;7.18;4.90;;;;;;;;;;5032369;28;20206;-76
2023/08/23 07:31:19;;;;;;;4.68;4.00;;;;;;;;;;5024228;28;20289;-77
2023/08/23 07:33:46;;;;;;;4.93;3.60;;;;;;;;;;5035568;28;20201;-77
2023/08/23 07:36:13;;;;;;;6.10;3.15;;;;;;;;;;5040706;28;20966;-76
2023/08/23 07:38:41;;;;;;;5.03;4.10;;;;;;;;;;5044085;28;20247;-76
2023/08/23 07:41:08;;;;;;;4.25;3.85;;;;;;;;;;5046424;28;20206;-77
2023/08/23 07:43:35;;;;;;;7.25;3.63;;;;;;;;;;5038657;28;20248;-74
2023/08/23 07:46:03;;;;;;;4.30;3.47;;;;;;;;;;5035093;28;20314;-76
2023/08/23 07:48:30;;;;;;;3.88;3.50;;;;;;;;;;5038301;28;20201;-75
2023/08/23 07:51:00;;;;;;;4.38;3.70;;;;;;;;;;5043870;28;20206;-76
2023/08/23 07:53:28;;;;;;;5.78;3.47;;;;;;;;;;5049489;28;20210;-76
2023/08/23 07:55:55;;;;;;;4.78;3.83;;;;;;;;;;5036156;28;20238;-77
2023/08/23 07:58:22;;;;;;;4.03;3.55;;;;;;;;;;5019698;28;20269;-76
2023/08/23 08:00:50;;;;;;;4.95;3.70;;;;;;;;;;5031647;28;20194;-77
2023/08/23 08:03:18;;;;;;;4.75;3.45;;;;;;;;;;5040920;28;20260;-76
2023/08/23 08:05:46;;;;;;;4.03;3.50;;;;;;;;;;5035364;28;20804;-76
2023/08/23 08:08:13;;;;;;;6.35;3.75;;;;;;;;;;5034052;28;20207;-76
2023/08/23 08:10:41;;;;;;;3.90;3.55;;;;;;;;;;5035885;28;20206;-77
2023/08/23 08:13:08;;;;;;;6.47;3.78;;;;;;;;;;5040815;28;20234;-77
2023/08/23 08:15:39;;;;;;;5.90;3.95;;;;;;;;;;5037014;28;20233;-75
2023/08/23 08:18:06;;;;;;;4.75;3.70;;;;;;;;;;5041496;28;20276;-76
2023/08/23 08:20:33;;;;;;;5.07;3.92;;;;;;;;;;5034724;28;20245;-75
2023/08/23 08:23:00;;;;;;;5.10;3.95;;;;;;;;;;5039265;28;20206;-76
2023/08/23 08:25:28;;;;;;;5.78;3.67;;;;;;;;;;5043216;28;20224;-77
2023/08/23 08:27:55;;;;;;;5.65;3.90;;;;;;;;;;5045608;28;20214;-77
2023/08/23 08:30:22;;;;;;;5.20;3.80;;;;;;;;;;5037257;28;20202;-76
2023/08/23 08:32:49;;;;;;;6.30;3.72;;;;;;;;;;5037986;28;20293;-77
2023/08/23 08:35:17;;;;;;;4.30;3.90;;;;;;;;;;5041118;28;20225;-75
2023/08/23 08:37:44;;;;;;;5.18;4.00;;;;;;;;;;5042295;28;20634;-75
2023/08/23 08:40:12;;;;;;;4.88;3.80;;;;;;;;;;5041432;28;20198;-77
2023/08/23 08:42:39;;;;;;;4.05;3.65;;;;;;;;;;5041597;28;20659;-77
2023/08/23 08:45:07;;;;;;;3.90;3.50;;;;;;;;;;5044667;28;20218;-75
2023/08/23 08:47:34;;;;;;;4.30;3.95;;;;;;;;;;5042585;28;20273;-77
2023/08/23 08:50:01;;;;;;;4.38;3.90;;;;;;;;;;5044996;28;20206;-75
2023/08/23 08:52:30;;;;;;;6.53;3.95;;;;;;;;;;5046649;28;20279;-76
2023/08/23 08:54:57;;;;;;;5.15;4.03;;;;;;;;;;5037801;28;20226;-76
2023/08/23 08:57:26;;;;;;;4.03;3.63;;;;;;;;;;5034331;28;20662;-76
2023/08/23 08:59:55;;;;;;;4.22;3.80;;;;;;;;;;5036310;28;20297;-76
2023/08/23 09:02:23;;;;;;;4.25;3.83;;;;;;;;;;5030983;28;20686;-76
2023/08/23 09:04:51;;;;;;;4.30;3.92;;;;;;;;;;5036334;28;21212;-75
2023/08/23 09:07:18;;;;;;;4.22;3.75;;;;;;;;;;5033092;28;20279;-77
2023/08/23 09:09:45;;;;;;;4.20;3.80;;;;;;;;;;5036249;28;22932;-78
2023/08/23 09:12:12;;;;;;;4.28;3.90;;;;;;;;;;5030740;28;20222;-76
2023/08/23 09:14:40;;;;;;;5.53;4.00;;;;;;;;;;5038740;28;20237;-77
2023/08/23 09:17:07;;;;;;;6.00;4.38;;;;;;;;;;5030625;28;20602;-77
2023/08/23 09:19:38;;;;;;;5.10;4.40;;;;;;;;;;5042202;28;20271;-77
2023/08/23 09:22:06;;;;;;;4.28;3.88;;;;;;;;;;5031992;28;21199;-77
2023/08/23 09:24:33;;;;;;;6.43;4.20;;;;;;;;;;5052085;28;20355;-75
2023/08/23 09:27:01;;;;;;;4.18;3.78;;;;;;;;;;5038220;28;20751;-76
2023/08/23 09:29:28;;;;;;;4.82;4.05;;;;;;;;;;5038996;28;20790;-76
2023/08/23 09:31:58;;;;;;;5.25;4.38;;;;;;;;;;5038959;28;20226;-76
2023/08/23 09:34:26;;;;;;;4.32;3.92;;;;;;;;;;5039787;28;20228;-77
2023/08/23 09:36:54;;;;;;;4.38;3.97;;;;;;;;;;5044279;28;20292;-78
2023/08/23 09:39:25;;;;;;;5.93;4.68;;;;;;;;;;5045390;28;20233;-75
2023/08/23 09:41:53;;;;;;;5.57;4.05;;;;;;;;;;5019729;28;20211;-77
2023/08/23 09:44:28;;;;;;;5.43;4.30;;;;;;;;;;5037445;28;20294;-76
2023/08/23 09:46:57;;;;;;;4.47;4.07;;;;;;;;;;5037655;28;20210;-76
2023/08/23 09:49:26;;;;;;;4.45;4.05;;;;;;;;;;5040335;28;20213;-75
2023/08/23 09:51:54;;;;;;;5.68;4.60;;;;;;;;;;5041477;28;20287;-75
2023/08/23 09:54:28;;;;;;;5.43;4.50;;;;;;;;;;5039645;28;20213;-75
2023/08/23 09:57:17;;;;;;;5.47;4.35;;;;;;;;;;5046476;28;20214;-76
2023/08/23 09:59:45;;;;;;;4.90;4.15;;;;;;;;;;5038419;28;20321;-76
2023/08/23 10:02:15;;;;;;;4.65;4.25;;;;;;;;;;5046139;28;20241;-76
2023/08/23 10:04:42;;;;;;;7.72;4.35;;;;;;;;;;5020093;28;20218;-76
2023/08/23 10:07:12;;;;;;;5.82;4.60;;;;;;;;;;5029919;28;20315;-76
2023/08/23 10:09:40;;;;;;;4.50;4.07;;;;;;;;;;5028946;28;20682;-76
2023/08/23 10:12:11;;;;;;;5.03;4.07;;;;;;;;;;5035521;28;20211;-76
2023/08/23 10:14:41;;;;;;;5.13;4.25;;;;;;;;;;5035125;28;20249;-77
2023/08/23 10:17:10;;;;;;;4.78;4.38;;;;;;;;;;5032064;28;20250;-76
2023/08/23 10:19:37;;;;;;;5.35;4.38;;;;;;;;;;5042893;28;20306;-77
2023/08/23 10:22:05;;;;;;;6.18;4.15;;;;;;;;;;5041877;28;20256;-77
2023/08/23 10:24:32;;;;;;;4.53;4.18;;;;;;;;;;5044528;28;20248;-76
2023/08/23 10:27:06;;;;;;;4.97;4.30;;;;;;;;;;5038258;28;20226;-75
2023/08/23 10:29:37;;;;;;;5.28;4.70;;;;;;;;;;5034724;28;20206;-76
2023/08/23 10:32:05;;;;;;;5.30;4.50;;;;;;;;;;5034999;28;20276;-76
2023/08/23 10:34:35;;;;;;;6.43;4.03;;;;;;;;;;5030815;28;20226;-76
2023/08/23 10:37:16;;;;;;;5.13;4.00;;;;;;;;;;5040179;28;20608;-75
2023/08/23 10:39:48;;;;;;;5.20;4.40;;;;;;;;;;5041479;28;20279;-76
2023/08/23 10:42:16;;;;;;;5.80;4.50;;;;;;;;;;5038003;28;20202;-76
2023/08/23 10:44:46;;;;;;;6.22;4.10;;;;;;;;;;5034687;28;20223;-76
2023/08/23 10:47:15;;;;;;;4.65;4.25;;;;;;;;;;5035524;28;20217;-75
2023/08/23 10:49:43;;;;;;;8.07;4.45;;;;;;;;;;5031936;28;20288;-76
2023/08/23 10:52:11;;;;;;;4.60;4.20;;;;;;;;;;5036074;28;20226;-76
2023/08/23 10:54:38;;;;;;;7.15;4.43;;;;;;;;;;5035524;28;20229;-75
2023/08/23 10:57:06;;;;;;;5.55;4.13;;;;;;;;;;5035065;28;20234;-77
2023/08/23 10:59:33;;;;;;;5.97;4.53;;;;;;;;;;5032561;28;20319;-76
2023/08/23 11:02:01;;;;;;;4.72;4.32;;;;;;;;;;5034945;28;20283;-77
2023/08/23 11:04:28;;;;;;;4.90;4.38;;;;;;;;;;5044693;28;20234;-76
2023/08/23 11:06:56;;;;;;;4.68;4.25;;;;;;;;;;5033630;28;20221;-75
2023/08/23 11:09:24;;;;;;;6.82;5.03;;;;;;;;;;5034162;28;20221;-77
2023/08/23 11:11:52;;;;;;;5.15;4.40;;;;;;;;;;5032064;28;20764;-75
2023/08/23 11:14:19;;;;;;;5.75;4.70;;;;;;;;;;5040794;28;20246;-76
2023/08/23 11:16:46;;;;;;;5.28;4.30;;;;;;;;;;5052672;28;21189;-76
2023/08/23 11:19:13;;;;;;;7.25;4.68;;;;;;;;;;5041142;28;20234;-77
2023/08/23 11:21:41;;;;;;;5.68;4.57;;;;;;;;;;5046397;28;20669;-77
2023/08/23 11:24:08;;;;;;;4.85;4.45;;;;;;;;;;5032530;28;20735;-75
2023/08/23 11:26:36;;;;;;;7.18;4.53;;;;;;;;;;5031424;28;20457;-75
2023/08/23 11:29:03;;;;;;;4.63;4.22;;;;;;;;;;5042263;28;20229;-76
2023/08/23 11:31:34;;;;;;;6.57;4.72;;;;;;;;;;5039877;28;20244;-76
2023/08/23 11:34:08;;;;;;;8.95;4.70;;;;;;;;;;5043340;28;20202;-77
2023/08/23 11:36:39;;;;;;;4.70;4.28;;;;;;;;;;5058781;28;20205;-76
2023/08/23 11:39:07;;;;;;;6.28;4.32;;;;;;;;;;5035440;28;20331;-76
2023/08/23 11:41:35;;;;;;;5.47;4.30;;;;;;;;;;5031741;28;20234;-77
2023/08/23 11:44:05;;;;;;;4.85;4.40;;;;;;;;;;5040901;28;20746;-75
2023/08/23 11:46:37;;;;;;;5.05;4.25;;;;;;;;;;5042369;28;20628;-75
2023/08/23 11:49:08;;;;;;;7.57;4.47;;;;;;;;;;5038709;28;20210;-76
2023/08/23 11:51:44;;;;;;;5.07;4.30;;;;;;;;;;5037795;28;20252;-75
2023/08/23 11:54:11;;;;;;;5.30;4.55;;;;;;;;;;5036772;28;20240;-75
2023/08/23 11:56:39;;;;;;;5.18;4.45;;;;;;;;;;5043723;28;20685;-76
2023/08/23 11:59:08;;;;;;;6.03;4.93;;;;;;;;;;5043574;28;20316;-76
2023/08/23 12:01:35;;;;;;;5.85;5.05;;;;;;;;;;5041586;28;20660;-76
2023/08/23 12:04:03;;;;;;;5.15;4.55;;;;;;;;;;5040830;28;20285;-75
2023/08/23 12:06:30;;;;;;;5.03;4.45;;;;;;;;;;5049273;28;20206;-76
2023/08/23 12:08:57;;;;;;;6.38;4.75;;;;;;;;;;5046000;28;20315;-76
2023/08/23 12:11:25;;;;;;;5.97;4.90;;;;;;;;;;5033874;28;20389;-75
2023/08/23 12:13:53;;;;;;;5.15;4.55;;;;;;;;;;5034487;28;20229;-77
2023/08/23 12:16:20;;;;;;;4.80;4.50;;;;;;;;;;5036109;28;20230;-75
2023/08/23 12:18:48;;;;;;;5.30;4.80;;;;;;;;;;5029811;28;20222;-75
2023/08/23 12:21:16;;;;;;;4.82;4.30;;;;;;;;;;5035660;28;20203;-76
2023/08/23 12:23:43;;;;;;;8.90;4.80;;;;;;;;;;5037922;28;20665;-78
2023/08/23 12:26:10;;;;;;;5.10;4.60;;;;;;;;;;5040930;28;20261;-76
2023/08/23 12:28:37;;;;;;;6.45;4.68;;;;;;;;;;5040150;28;20206;-75
2023/08/23 12:31:05;;;;;;;7.03;4.35;;;;;;;;;;5033539;28;20239;-75
2023/08/23 12:33:32;;;;;;;4.75;4.35;;;;;;;;;;5037032;28;20796;-74
2023/08/23 12:35:59;;;;;;;6.18;4.47;;;;;;;;;;5045177;28;20334;-75
2023/08/23 12:38:26;;;;;;;6.20;4.63;;;;;;;;;;5042313;28;20265;-77
2023/08/23 12:40:54;;;;;;;6.65;4.13;;;;;;;;;;5041395;28;20202;-76
2023/08/23 12:43:21;;;;;;;4.82;4.35;;;;;;;;;;5045526;28;20346;-76
2023/08/23 12:45:48;;;;;;;7.20;5.20;;;;;;;;;;5040943;28;20234;-76
2023/08/23 12:48:15;;;;;;;4.40;4.00;;;;;;;;;;5040780;28;20212;-75
2023/08/23 12:50:43;;;;;;;4.90;4.45;;;;;;;;;;5044527;28;20210;-77
2023/08/23 12:53:10;;;;;;;5.00;4.50;;;;;;;;;;5046827;28;20265;-75
2023/08/23 12:55:37;;;;;;;6.18;4.47;;;;;;;;;;5035551;28;20275;-76
2023/08/23 12:58:04;;;;;;;8.07;4.68;;;;;;;;;;5037602;28;20252;-75
2023/08/23 13:00:32;;;;;;;5.10;4.60;;;;;;;;;;5034926;28;20309;-75
2023/08/23 13:03:00;;;;;;;6.68;4.55;;;;;;;;;;5022301;28;20214;-75
2023/08/23 13:05:28;;;;;;;5.68;4.70;;;;;;;;;;5046694;28;20267;-75
2023/08/23 13:07:55;;;;;;;14.93;5.63;;;;;;;;;;5036244;28;20222;-77
2023/08/23 13:10:22;;;;;;;5.85;4.47;;;;;;;;;;5048380;28;20673;-76
2023/08/23 13:12:50;;;;;;;9.65;4.25;;;;;;;;;;5020876;28;20303;-76
2023/08/23 13:15:17;;;;;;;4.57;4.18;;;;;;;;;;5051010;28;20234;-77
2023/08/23 13:17:44;;;;;;;5.78;4.45;;;;;;;;;;5047516;28;20292;-76
2023/08/23 13:20:12;;;;;;;4.70;4.25;;;;;;;;;;5042411;28;20276;-76
2023/08/23 13:22:40;;;;;;;4.35;3.97;;;;;;;;;;5055414;28;20324;-77
2023/08/23 13:25:07;;;;;;;4.38;3.97;;;;;;;;;;5044106;28;20218;-76
2023/08/23 13:27:34;;;;;;;4.32;3.92;;;;;;;;;;5048099;28;20197;-76
2023/08/23 13:30:02;;;;;;;5.03;4.43;;;;;;;;;;5039240;28;20210;-75
2023/08/23 13:32:29;;;;;;;5.78;4.10;;;;;;;;;;5024274;28;20210;-76
2023/08/23 13:34:56;;;;;;;5.60;4.00;;;;;;;;;;5042163;28;20267;-76
2023/08/23 13:37:24;;;;;;;6.55;3.80;;;;;;;;;;5040004;28;20210;-76
2023/08/23 13:39:51;;;;;;;4.82;4.30;;;;;;;;;;5046435;28;20281;-78
2023/08/23 13:42:18;;;;;;;5.22;4.00;;;;;;;;;;5042083;28;20957;-75
2023/08/23 13:44:45;;;;;;;5.40;3.85;;;;;;;;;;5046659;28;20296;-76
2023/08/23 13:47:13;;;;;;;4.60;4.20;;;;;;;;;;5050153;28;20572;-75
2023/08/23 13:49:40;;;;;;;5.85;4.38;;;;;;;;;;5047348;28;20843;-75
2023/08/23 13:52:07;;;;;;;4.82;3.90;;;;;;;;;;5042766;28;20746;-75
2023/08/23 13:54:34;;;;;;;5.85;3.90;;;;;;;;;;5028821;28;20221;-77
2023/08/23 13:57:02;;;;;;;4.80;3.83;;;;;;;;;;5040306;28;20205;-76
2023/08/23 13:59:29;;;;;;;4.13;3.47;;;;;;;;;;5040450;28;20221;-75
2023/08/23 14:01:56;;;;;;;4.10;3.55;;;;;;;;;;5045264;28;20583;-76
2023/08/23 14:04:24;;;;;;;6.40;3.85;;;;;;;;;;5038020;28;20719;-77
2023/08/23 14:06:51;;;;;;;5.60;3.80;;;;;;;;;;5038817;28;20218;-75
2023/08/23 14:09:18;;;;;;;3.90;3.60;;;;;;;;;;5042364;28;20241;-78
2023/08/23 14:11:56;;;;;;;5.90;3.88;;;;;;;;;;5035553;28;20455;-75
2023/08/23 14:14:23;;;;;;;5.35;3.42;;;;;;;;;;5035169;28;20267;-77
2023/08/23 14:16:52;;;;;;;4.18;3.70;;;;;;;;;;5038276;28;20276;-75
2023/08/23 14:19:19;;;;;;;4.50;3.65;;;;;;;;;;5038658;28;20332;-74
2023/08/23 14:21:48;;;;;;;4.65;4.05;;;;;;;;;;5042665;28;20259;-76
2023/08/23 14:24:15;;;;;;;6.57;4.35;;;;;;;;;;5030253;28;20205;-76
2023/08/23 14:26:42;;;;;;;9.75;5.35;;;;;;;;;;5044465;28;20201;-75
2023/08/23 14:29:09;;;;;;;7.38;4.82;;;;;;;;;;5045912;28;20282;-76
2023/08/23 14:31:37;;;;;;;5.57;4.45;;;;;;;;;;5032773;28;20233;-76
2023/08/23 14:34:04;;;;;;;6.57;4.47;;;;;;;;;;5035262;28;20212;-77
2023/08/23 14:36:31;;;;;;;10.02;7.18;;;;;;;;;;5042236;28;20221;-77
2023/08/23 14:38:59;;;;;;;6.72;3.47;;;;;;;;;;5030530;28;20306;-77
2023/08/23 14:41:27;;;;;;;6.35;3.78;;;;;;;;;;5031421;28;20213;-77
2023/08/23 14:43:54;;;;;;;6.00;3.38;;;;;;;;;;5039913;28;20225;-76
2023/08/23 14:46:21;;;;;;;5.13;3.53;;;;;;;;;;5032266;28;20766;-75
2023/08/23 14:48:49;;;;;;;5.88;3.67;;;;;;;;;;5035494;28;22058;-76